createdAt,value
2018-02-18T00:02:13.501Z,7.53
2018-02-18T00:04:40.946Z,8.50
2018-02-18T00:07:08.415Z,6.90
2018-02-18T00:09:35.893Z,7.40
2018-02-18T00:12:03.335Z,6.43
2018-02-18T00:14:33.202Z,5.60
2018-02-18T00:17:00.710Z,6.23
2018-02-18T00:19:28.159Z,7.20
2018-02-18T00:21:55.615Z,6.17
2018-02-18T00:24:23.075Z,6.20
2018-02-18T00:26:50.530Z,6.72
2018-02-18T00:29:17.961Z,7.43
2018-02-18T00:31:45.396Z,8.23
2018-02-18T00:34:13.614Z,7.65
2018-02-18T00:36:41.076Z,6.97
2018-02-18T00:39:08.528Z,9.52
2018-02-18T00:41:35.983Z,7.60
2018-02-18T00:44:03.553Z,8.52
2018-02-18T00:46:30.991Z,7.60
2018-02-18T00:48:58.538Z,8.50
2018-02-18T00:51:25.979Z,10.85
2018-02-18T00:53:53.427Z,8.20
2018-02-18T00:56:21.695Z,8.52
2018-02-18T00:58:49.122Z,8.50
2018-02-18T01:01:16.671Z,7.82
2018-02-18T01:03:44.137Z,7.90
2018-02-18T01:06:11.598Z,7.78
2018-02-18T01:08:39.786Z,8.75
2018-02-18T01:11:08.130Z,9.25
2018-02-18T01:13:35.586Z,8.00
2018-02-18T01:16:03.017Z,9.55
2018-02-18T01:18:30.446Z,9.07
2018-02-18T01:20:58.772Z,10.10
2018-02-18T01:23:26.211Z,9.32
2018-02-18T01:25:53.690Z,9.20
2018-02-18T01:28:21.250Z,9.00
2018-02-18T01:30:48.680Z,9.13
2018-02-18T01:33:16.150Z,8.40
2018-02-18T01:35:43.598Z,9.00
2018-02-18T01:38:11.064Z,9.23
2018-02-18T01:40:38.498Z,9.15
2018-02-18T01:43:06.058Z,8.88
2018-02-18T01:45:33.479Z,9.25
2018-02-18T01:48:00.912Z,8.90
2018-02-18T01:50:37.097Z,8.75
2018-02-18T01:53:05.304Z,9.25
2018-02-18T01:55:32.792Z,8.83
2018-02-18T01:58:00.229Z,9.33
2018-02-18T02:00:27.715Z,9.10
2018-02-18T02:02:55.145Z,8.40
2018-02-18T02:05:22.574Z,9.00
2018-02-18T02:07:50.007Z,8.02
2018-02-18T02:10:17.448Z,7.90
2018-02-18T02:12:44.882Z,8.38
2018-02-18T02:15:12.311Z,8.65
2018-02-18T02:17:39.746Z,11.05
2018-02-18T02:20:07.183Z,7.57
2018-02-18T02:22:35.381Z,7.47
2018-02-18T02:25:02.805Z,6.90
2018-02-18T02:27:30.291Z,7.55
2018-02-18T02:29:57.718Z,8.40
2018-02-18T02:32:25.161Z,7.70
2018-02-18T02:34:52.622Z,6.72
2018-02-18T02:37:20.081Z,6.93
2018-02-18T02:39:47.511Z,6.97
2018-02-18T02:42:14.988Z,7.12
2018-02-18T02:44:42.509Z,7.80
2018-02-18T02:47:09.930Z,7.10
2018-02-18T02:49:38.127Z,6.90
2018-02-18T02:52:05.570Z,6.33
2018-02-18T02:54:33.027Z,7.13
2018-02-18T02:57:00.494Z,6.63
2018-02-18T02:59:27.918Z,6.80
2018-02-18T03:01:55.350Z,7.10
2018-02-18T03:04:22.790Z,6.87
2018-02-18T03:06:50.226Z,6.00
2018-02-18T03:09:17.654Z,6.28
2018-02-18T03:11:45.846Z,7.68
2018-02-18T03:14:13.284Z,7.78
2018-02-18T03:16:41.493Z,6.85
2018-02-18T03:19:08.929Z,7.03
2018-02-18T03:21:36.402Z,7.68
2018-02-18T03:24:03.934Z,6.68
2018-02-18T03:26:31.480Z,6.65
2018-02-18T03:28:59.711Z,6.30
2018-02-18T03:31:27.184Z,6.62
2018-02-18T03:33:54.590Z,6.43
2018-02-18T03:36:22.018Z,6.78
2018-02-18T03:38:49.507Z,6.78
2018-02-18T03:41:16.958Z,5.90
2018-02-18T03:43:44.403Z,7.25
2018-02-18T03:46:12.607Z,6.40
2018-02-18T03:48:40.081Z,6.55
2018-02-18T03:51:07.627Z,6.90
2018-02-18T03:53:35.078Z,6.28
2018-02-18T03:56:02.553Z,6.97
2018-02-18T03:58:30.111Z,7.20
2018-02-18T04:00:58.067Z,6.30
2018-02-18T04:03:25.498Z,7.60
2018-02-18T04:05:53.718Z,6.80
2018-02-18T04:08:21.166Z,6.55
2018-02-18T04:10:48.606Z,5.70
2018-02-18T04:13:16.043Z,6.95
2018-02-18T04:15:43.558Z,6.82
2018-02-18T04:18:11.014Z,7.28
2018-02-18T04:20:38.454Z,8.20
2018-02-18T04:23:05.891Z,7.45
2018-02-18T04:25:33.333Z,7.97
2018-02-18T04:28:01.523Z,7.03
2018-02-18T04:30:28.994Z,6.85
2018-02-18T04:32:56.450Z,7.32
2018-02-18T04:35:23.891Z,7.25
2018-02-18T04:37:51.366Z,7.80
2018-02-18T04:40:18.805Z,7.40
2018-02-18T04:42:46.286Z,8.60
2018-02-18T04:45:13.721Z,7.10
2018-02-18T04:47:42.123Z,8.20
2018-02-18T04:50:09.578Z,8.48
2018-02-18T04:52:37.009Z,8.50
2018-02-18T04:55:04.478Z,8.70
2018-02-18T04:57:31.931Z,6.85
2018-02-18T04:59:59.354Z,7.55
2018-02-18T05:02:26.791Z,6.87
2018-02-18T05:04:54.310Z,7.32
2018-02-18T05:07:21.761Z,6.50
2018-02-18T05:09:49.326Z,8.13
2018-02-18T05:12:16.774Z,7.78
2018-02-18T05:14:44.262Z,8.18
2018-02-18T05:17:13.226Z,7.30
2018-02-18T05:19:40.670Z,7.00
2018-02-18T05:22:08.110Z,7.60
2018-02-18T05:24:35.600Z,7.20
2018-02-18T05:27:03.059Z,6.60
2018-02-18T05:29:30.532Z,6.62
2018-02-18T05:31:57.967Z,7.20
2018-02-18T05:34:25.409Z,6.22
2018-02-18T05:36:52.855Z,5.82
2018-02-18T05:39:20.284Z,6.95
2018-02-18T05:41:48.535Z,6.10
2018-02-18T05:44:16.790Z,5.70
2018-02-18T05:46:44.247Z,5.73
2018-02-18T05:49:11.704Z,6.10
2018-02-18T05:51:39.138Z,6.10
2018-02-18T05:54:06.557Z,5.60
2018-02-18T05:56:34.782Z,5.60
2018-02-18T05:59:02.221Z,5.60
2018-02-18T06:01:29.709Z,5.43
2018-02-18T06:03:57.167Z,5.20
2018-02-18T06:06:24.610Z,4.97
2018-02-18T06:08:52.042Z,4.60
2018-02-18T06:11:19.469Z,5.10
2018-02-18T06:13:47.665Z,5.10
2018-02-18T06:16:15.159Z,6.28
2018-02-18T06:18:42.595Z,5.32
2018-02-18T06:21:10.173Z,5.50
2018-02-18T06:23:37.605Z,5.35
2018-02-18T06:26:05.038Z,5.18
2018-02-18T06:28:33.249Z,5.72
2018-02-18T06:31:00.682Z,6.25
2018-02-18T06:33:28.178Z,5.28
2018-02-18T06:35:55.652Z,5.20
2018-02-18T06:38:23.182Z,5.20
2018-02-18T06:40:50.609Z,5.95
2018-02-18T06:43:18.047Z,5.18
2018-02-18T06:45:46.241Z,5.22
2018-02-18T06:48:13.730Z,6.05
2018-02-18T06:50:41.159Z,5.95
2018-02-18T06:53:08.602Z,5.18
2018-02-18T06:55:36.031Z,5.25
2018-02-18T06:58:05.231Z,5.05
2018-02-18T07:00:32.671Z,5.65
2018-02-18T07:03:00.110Z,5.75
2018-02-18T07:05:27.582Z,5.90
2018-02-18T07:07:55.026Z,5.47
2018-02-18T07:10:22.483Z,6.32
2018-02-18T07:12:50.040Z,5.80
2018-02-18T07:15:17.464Z,6.40
2018-02-18T07:17:44.918Z,6.20
2018-02-18T07:20:12.414Z,6.35
2018-02-18T07:22:39.861Z,6.60
2018-02-18T07:25:07.329Z,6.25
2018-02-18T07:27:34.881Z,6.03
2018-02-18T07:30:02.334Z,6.30
2018-02-18T07:32:29.773Z,6.90
2018-02-18T07:34:57.202Z,6.62
2018-02-18T07:37:25.447Z,6.60
2018-02-18T07:39:52.851Z,6.07
2018-02-18T07:42:20.290Z,7.65
2018-02-18T07:44:48.502Z,6.90
2018-02-18T07:47:16.073Z,6.68
2018-02-18T07:49:43.530Z,6.20
2018-02-18T07:52:10.970Z,7.37
2018-02-18T07:54:38.406Z,5.93
2018-02-18T07:57:05.893Z,6.47
2018-02-18T07:59:33.314Z,6.25
2018-02-18T08:02:00.758Z,7.40
2018-02-18T08:04:28.957Z,5.43
2018-02-18T08:06:56.419Z,6.40
2018-02-18T08:09:23.859Z,6.10
2018-02-18T08:11:51.298Z,6.43
2018-02-18T08:14:19.495Z,6.30
2018-02-18T08:16:46.947Z,6.40
2018-02-18T08:19:14.422Z,6.17
2018-02-18T08:21:41.864Z,6.53
2018-02-18T08:24:09.294Z,6.50
2018-02-18T08:26:37.492Z,6.67
2018-02-18T08:29:04.982Z,6.00
2018-02-18T08:31:32.432Z,6.90
2018-02-18T08:33:59.888Z,7.15
2018-02-18T08:36:27.341Z,6.10
2018-02-18T08:38:54.800Z,6.80
2018-02-18T08:41:22.222Z,6.30
2018-02-18T08:43:50.405Z,6.85
2018-02-18T08:46:17.891Z,6.70
2018-02-18T08:48:45.363Z,7.22
2018-02-18T08:51:12.925Z,7.00
2018-02-18T08:53:40.357Z,6.50
2018-02-18T08:56:07.811Z,7.70
2018-02-18T08:58:35.247Z,6.87
2018-02-18T09:01:02.740Z,7.15
2018-02-18T09:03:30.189Z,6.80
2018-02-18T09:05:57.654Z,7.50
2018-02-18T09:08:25.099Z,8.20
2018-02-18T09:10:52.526Z,7.50
2018-02-18T09:13:19.966Z,7.32
2018-02-18T09:15:48.210Z,7.53
2018-02-18T09:18:15.748Z,7.45
2018-02-18T09:20:43.218Z,7.72
2018-02-18T09:23:10.767Z,7.47
2018-02-18T09:25:38.200Z,6.62
2018-02-18T09:28:05.650Z,6.82
2018-02-18T09:30:33.155Z,7.22
2018-02-18T09:33:00.599Z,6.22
2018-02-18T09:35:28.030Z,6.55
2018-02-18T09:37:55.515Z,7.80
2018-02-18T09:40:22.967Z,6.40
2018-02-18T09:42:50.498Z,6.60
2018-02-18T09:45:18.012Z,6.57
2018-02-18T09:47:45.616Z,6.80
2018-02-18T09:50:13.129Z,6.10
2018-02-18T09:52:40.625Z,6.53
2018-02-18T09:55:08.169Z,6.47
2018-02-18T09:57:36.403Z,5.68
2018-02-18T10:00:03.914Z,5.65
2018-02-18T10:02:31.495Z,5.82
2018-02-18T10:04:58.983Z,5.97
2018-02-18T10:07:26.440Z,6.10
2018-02-18T10:09:53.874Z,6.03
2018-02-18T10:12:21.299Z,4.90
2018-02-18T10:14:48.764Z,4.93
2018-02-18T10:17:16.182Z,5.60
2018-02-18T10:19:44.382Z,4.93
2018-02-18T10:22:11.826Z,4.62
2018-02-18T10:24:39.307Z,4.60
2018-02-18T10:27:06.756Z,5.00
2018-02-18T10:29:34.181Z,5.30
2018-02-18T10:32:02.445Z,4.85
2018-02-18T10:34:29.890Z,5.50
2018-02-18T10:36:57.353Z,5.05
2018-02-18T10:39:24.838Z,4.70
2018-02-18T10:41:52.282Z,4.50
2018-02-18T10:44:19.738Z,6.68
2018-02-18T10:46:47.154Z,5.12
2018-02-18T10:49:14.608Z,5.80
2018-02-18T10:51:42.045Z,5.30
2018-02-18T10:54:09.475Z,5.00
2018-02-18T10:56:36.902Z,5.72
2018-02-18T10:59:04.930Z,6.30
2018-02-18T11:01:32.414Z,5.70
2018-02-18T11:03:59.910Z,4.80
2018-02-18T11:06:28.116Z,4.60
2018-02-18T11:08:55.543Z,5.10
2018-02-18T11:11:23.758Z,5.43
2018-02-18T11:13:51.168Z,5.97
2018-02-18T11:16:18.603Z,5.90
2018-02-18T11:18:46.050Z,5.12
2018-02-18T11:21:13.473Z,5.50
2018-02-18T11:23:40.902Z,5.95
2018-02-18T11:26:08.362Z,5.72
2018-02-18T11:28:35.802Z,6.50
2018-02-18T11:31:04.142Z,6.20
2018-02-18T11:33:31.734Z,5.87
2018-02-18T11:35:59.433Z,5.43
2018-02-18T11:38:26.831Z,5.82
2018-02-18T11:40:54.288Z,6.07
2018-02-18T11:43:21.718Z,6.72
2018-02-18T11:45:49.195Z,7.30
2018-02-18T11:48:16.639Z,5.93
2018-02-18T11:50:44.294Z,6.37
2018-02-18T11:53:11.858Z,6.90
2018-02-18T11:55:39.305Z,6.90
2018-02-18T11:58:06.895Z,6.50
2018-02-18T12:00:34.461Z,6.60
2018-02-18T12:03:01.907Z,7.37
2018-02-18T12:05:29.357Z,7.72
2018-02-18T12:07:56.805Z,8.30
2018-02-18T12:10:24.271Z,7.82
2018-02-18T12:12:51.914Z,8.10
2018-02-18T12:15:19.434Z,9.60
2018-02-18T12:17:46.952Z,8.80
2018-02-18T12:20:14.506Z,8.80
2018-02-18T12:22:41.993Z,8.32
2018-02-18T12:25:09.805Z,9.30
2018-02-18T12:27:37.264Z,8.70
2018-02-18T12:30:04.824Z,10.10
2018-02-18T12:32:32.305Z,9.32
2018-02-18T12:34:59.858Z,10.20
2018-02-18T12:37:27.322Z,9.52
2018-02-18T12:39:54.775Z,9.80
2018-02-18T12:42:22.229Z,9.10
2018-02-18T12:44:49.754Z,9.55
2018-02-18T12:47:17.563Z,9.38
2018-02-18T12:49:44.994Z,8.97
2018-02-18T12:52:12.454Z,9.82
2018-02-18T12:54:39.910Z,9.88
2018-02-18T12:57:07.369Z,9.70
2018-02-18T12:59:34.799Z,9.48
2018-02-18T13:02:02.239Z,9.70
2018-02-18T13:04:29.713Z,12.37
2018-02-18T13:06:57.145Z,10.52
2018-02-18T13:09:25.387Z,11.67
2018-02-18T13:11:52.828Z,10.63
2018-02-18T13:14:20.272Z,9.90
2018-02-18T13:16:47.701Z,10.60
2018-02-18T13:19:15.138Z,11.07
2018-02-18T13:21:43.343Z,11.12
2018-02-18T13:24:10.784Z,9.82
2018-02-18T13:26:38.975Z,8.93
2018-02-18T13:29:06.410Z,9.20
2018-02-18T13:31:33.838Z,10.50
2018-02-18T13:34:01.345Z,9.57
2018-02-18T13:36:28.761Z,8.75
2018-02-18T13:38:57.077Z,8.90
2018-02-18T13:41:24.502Z,9.40
2018-02-18T13:43:52.703Z,10.20
2018-02-18T13:46:20.182Z,8.30
2018-02-18T13:48:47.641Z,9.40
2018-02-18T13:51:15.070Z,9.43
2018-02-18T13:53:42.509Z,10.52
2018-02-18T13:56:10.093Z,9.70
2018-02-18T13:58:37.582Z,11.00
2018-02-18T14:01:05.108Z,8.93
2018-02-18T14:03:32.594Z,9.40
2018-02-18T14:06:00.056Z,10.65
2018-02-18T14:08:27.500Z,10.38
2018-02-18T14:10:54.934Z,9.70
2018-02-18T14:13:22.415Z,8.90
2018-02-18T14:15:49.874Z,10.10
2018-02-18T14:18:17.322Z,9.77
2018-02-18T14:20:44.870Z,9.63
2018-02-18T14:23:12.343Z,8.90
2018-02-18T14:25:39.789Z,11.43
2018-02-18T14:28:07.213Z,9.60
2018-02-18T14:30:34.714Z,10.65
2018-02-18T14:33:02.177Z,9.95
2018-02-18T14:35:29.638Z,9.68
2018-02-18T14:37:57.084Z,9.60
2018-02-18T14:40:24.614Z,9.80
2018-02-18T14:43:04.082Z,10.23
2018-02-18T14:45:43.402Z,11.05
2018-02-18T14:48:22.803Z,12.55
2018-02-18T14:51:02.929Z,12.30
2018-02-18T14:53:42.320Z,9.38
2018-02-18T14:56:31.407Z,9.13
2018-02-18T14:58:58.854Z,11.65
2018-02-18T15:01:26.309Z,10.48
2018-02-18T15:03:53.883Z,10.38
2018-02-18T15:06:21.327Z,8.95
2018-02-18T15:08:48.773Z,10.13
2018-02-18T15:11:16.227Z,9.02
2018-02-18T15:13:43.657Z,9.88
2018-02-18T15:16:11.896Z,11.07
2018-02-18T15:18:39.353Z,9.88
2018-02-18T15:21:06.900Z,9.00
2018-02-18T15:23:34.340Z,9.65
2018-02-18T15:26:01.773Z,14.23
2018-02-18T15:28:29.273Z,16.92
2018-02-18T15:30:56.724Z,19.35
2018-02-18T15:33:24.171Z,16.02
2018-02-18T15:35:51.623Z,13.23
2018-02-18T15:38:19.051Z,16.02
2018-02-18T15:40:47.269Z,15.43
2018-02-18T15:43:14.702Z,13.20
2018-02-18T15:45:42.181Z,10.20
2018-02-18T15:48:09.613Z,10.30
2018-02-18T15:50:37.056Z,11.45
2018-02-18T15:53:04.592Z,11.68
2018-02-18T15:55:32.790Z,14.15
2018-02-18T15:58:00.217Z,12.93
2018-02-18T16:00:28.436Z,15.20
2018-02-18T16:02:55.915Z,16.70
2018-02-18T16:05:23.358Z,18.37
2018-02-18T16:07:50.905Z,16.30
2018-02-18T16:10:18.329Z,16.42
2018-02-18T16:12:45.768Z,15.27
2018-02-18T16:15:13.975Z,17.50
2018-02-18T16:17:41.410Z,18.12
2018-02-18T16:20:09.646Z,15.88
2018-02-18T16:22:37.201Z,13.00
2018-02-18T16:25:04.640Z,11.40
2018-02-18T16:27:32.099Z,10.02
2018-02-18T16:29:59.660Z,10.20
2018-02-18T16:32:27.083Z,12.50
2018-02-18T16:34:54.520Z,15.10
2018-02-18T16:37:21.989Z,13.50
2018-02-18T16:39:50.203Z,11.48
2018-02-18T16:42:17.639Z,12.32
2018-02-18T16:44:45.074Z,12.37
2018-02-18T16:47:13.281Z,10.40
2018-02-18T16:49:40.760Z,11.77
2018-02-18T16:52:08.210Z,13.25
2018-02-18T16:54:35.676Z,10.90
2018-02-18T16:57:03.159Z,12.13
2018-02-18T16:59:30.696Z,17.40
2018-02-18T17:01:58.126Z,18.90
2018-02-18T17:04:25.576Z,15.05
2018-02-18T17:06:53.002Z,15.73
2018-02-18T17:09:21.206Z,15.35
2018-02-18T17:11:48.636Z,17.52
2018-02-18T17:14:16.842Z,17.37
2018-02-18T17:16:44.271Z,18.15
2018-02-18T17:19:11.710Z,16.98
2018-02-18T17:21:39.914Z,16.55
2018-02-18T17:24:07.351Z,16.77
2018-02-18T17:26:35.538Z,18.23
2018-02-18T17:29:02.974Z,19.45
2018-02-18T17:31:31.182Z,21.50
2018-02-18T17:33:58.676Z,21.27
2018-02-18T17:36:26.118Z,20.25
2018-02-18T17:38:53.580Z,19.85
2018-02-18T17:41:20.998Z,18.10
2018-02-18T17:43:48.446Z,18.80
2018-02-18T17:46:15.883Z,16.50
2018-02-18T17:48:44.115Z,16.20
2018-02-18T17:51:11.546Z,14.70
2018-02-18T17:53:39.023Z,15.50
2018-02-18T17:56:06.504Z,14.20
2018-02-18T17:58:33.930Z,14.98
2018-02-18T18:01:01.362Z,15.30
2018-02-18T18:03:28.819Z,14.07
2018-02-18T18:05:56.272Z,14.70
2018-02-18T18:08:23.712Z,15.20
2018-02-18T18:10:51.939Z,14.10
2018-02-18T18:13:19.394Z,18.70
2018-02-18T18:15:46.834Z,14.23
2018-02-18T18:18:14.266Z,16.58
2018-02-18T18:20:41.715Z,14.50
2018-02-18T18:23:09.182Z,13.40
2018-02-18T18:25:37.378Z,14.95
2018-02-18T18:28:04.814Z,15.18
2018-02-18T18:30:32.271Z,15.48
2018-02-18T18:32:59.726Z,15.65
2018-02-18T18:35:27.137Z,15.10
2018-02-18T18:37:54.562Z,14.98
2018-02-18T18:40:22.034Z,14.50
2018-02-18T18:42:49.458Z,13.23
2018-02-18T18:45:16.905Z,14.05
2018-02-18T18:47:45.136Z,13.00
2018-02-18T18:50:12.585Z,14.07
2018-02-18T18:52:40.045Z,13.05
2018-02-18T18:55:07.491Z,12.70
2018-02-18T18:57:35.036Z,12.37
2018-02-18T19:00:02.497Z,13.15
2018-02-18T19:02:29.943Z,14.00
2018-02-18T19:04:57.382Z,13.67
2018-02-18T19:07:24.812Z,13.25
2018-02-18T19:09:53.047Z,12.70
2018-02-18T19:12:20.507Z,13.25
2018-02-18T19:14:48.075Z,12.20
2018-02-18T19:17:15.585Z,13.27
2018-02-18T19:19:43.014Z,12.60
2018-02-18T19:22:11.235Z,12.77
2018-02-18T19:24:38.679Z,12.10
2018-02-18T19:27:06.145Z,12.20
2018-02-18T19:29:33.597Z,12.90
2018-02-18T19:32:01.082Z,12.70
2018-02-18T19:34:28.635Z,13.50
2018-02-18T19:36:57.038Z,12.13
2018-02-18T19:39:24.573Z,12.60
2018-02-18T19:41:52.024Z,12.90
2018-02-18T19:44:19.485Z,12.90
2018-02-18T19:46:46.938Z,13.17
2018-02-18T19:49:14.405Z,13.20
2018-02-18T19:51:41.834Z,13.70
2018-02-18T19:54:09.278Z,14.82
2018-02-18T19:56:36.769Z,14.25
2018-02-18T19:59:04.207Z,14.75
2018-02-18T20:01:31.702Z,15.07
2018-02-18T20:03:59.082Z,14.10
2018-02-18T20:06:27.274Z,13.68
2018-02-18T20:08:54.770Z,14.38
2018-02-18T20:11:22.218Z,14.63
2018-02-18T20:13:49.702Z,14.40
2018-02-18T20:16:17.138Z,13.50
2018-02-18T20:18:44.627Z,13.73
2018-02-18T20:21:12.832Z,13.00
2018-02-18T20:23:40.265Z,13.80
2018-02-18T20:26:08.884Z,14.27
2018-02-18T20:28:36.371Z,14.20
2018-02-18T20:31:03.801Z,14.57
2018-02-18T20:33:31.271Z,15.40
2018-02-18T20:35:58.737Z,13.48
2018-02-18T20:38:26.166Z,14.77
2018-02-18T20:40:53.655Z,14.18
2018-02-18T20:43:21.110Z,14.02
2018-02-18T20:45:48.568Z,14.40
2018-02-18T20:48:15.978Z,15.35
2018-02-18T20:50:43.421Z,14.70
2018-02-18T20:53:11.626Z,14.48
2018-02-18T20:55:39.074Z,14.55
2018-02-18T20:58:06.554Z,16.77
2018-02-18T21:00:34.030Z,15.20
2018-02-18T21:03:01.897Z,15.40
2018-02-18T21:05:29.430Z,15.30
2018-02-18T21:07:56.858Z,15.65
2018-02-18T21:10:24.294Z,15.25
2018-02-18T21:12:52.630Z,15.43
2018-02-18T21:15:20.074Z,15.50
2018-02-18T21:17:47.914Z,15.52
2018-02-18T21:20:15.502Z,15.57
2018-02-18T21:22:43.184Z,15.57
2018-02-18T21:25:10.610Z,15.35
2018-02-18T21:27:38.048Z,15.80
2018-02-18T21:30:05.619Z,15.90
2018-02-18T21:32:33.026Z,16.30
2018-02-18T21:35:01.416Z,15.45
2018-02-18T21:37:29.073Z,15.18
2018-02-18T21:39:56.638Z,14.77
2018-02-18T21:42:24.432Z,17.17
2018-02-18T21:44:52.019Z,15.20
2018-02-18T21:47:19.557Z,16.23
2018-02-18T21:49:47.117Z,16.40
2018-02-18T21:52:14.659Z,15.68
2018-02-18T21:54:42.328Z,15.55
2018-02-18T21:57:10.196Z,16.12
2018-02-18T21:59:37.768Z,17.52
2018-02-18T22:02:05.389Z,16.35
2018-02-18T22:04:32.828Z,15.77
2018-02-18T22:07:01.078Z,15.88
2018-02-18T22:09:29.302Z,16.05
2018-02-18T22:11:56.738Z,15.63
2018-02-18T22:14:24.970Z,16.33
2018-02-18T22:16:52.517Z,15.77
2018-02-18T22:19:19.963Z,15.40
2018-02-18T22:21:47.542Z,15.90
2018-02-18T22:24:14.986Z,16.17
2018-02-18T22:26:42.462Z,16.62
2018-02-18T22:29:09.911Z,16.92
2018-02-18T22:31:37.349Z,17.62
2018-02-18T22:34:04.795Z,16.20
2018-02-18T22:36:32.224Z,16.27
2018-02-18T22:39:00.482Z,16.15
2018-02-18T22:41:27.918Z,17.20
2018-02-18T22:43:55.478Z,16.80
2018-02-18T22:46:22.922Z,17.37
2018-02-18T22:48:50.381Z,17.15
2018-02-18T22:51:17.841Z,16.75
2018-02-18T22:53:45.306Z,17.37
2018-02-18T22:56:12.862Z,16.80
2018-02-18T22:58:40.415Z,17.25
2018-02-18T23:01:07.977Z,17.17
2018-02-18T23:03:35.541Z,17.08
2018-02-18T23:06:02.980Z,17.10
2018-02-18T23:08:30.542Z,17.35
2018-02-18T23:10:58.552Z,18.90
2018-02-18T23:13:26.770Z,18.08
2018-02-18T23:15:54.226Z,18.10
2018-02-18T23:18:21.695Z,18.23
2018-02-18T23:21:01.245Z,17.40
2018-02-18T23:23:28.693Z,17.58
2018-02-18T23:25:56.154Z,17.60
2018-02-18T23:28:23.615Z,17.62
2018-02-18T23:30:51.038Z,18.27
2018-02-18T23:33:18.474Z,17.27
2018-02-18T23:35:45.899Z,18.33
2018-02-18T23:38:13.439Z,18.12
2018-02-18T23:40:40.887Z,18.05
2018-02-18T23:43:08.353Z,16.90
2018-02-18T23:45:35.812Z,17.70
2018-02-18T23:48:03.258Z,18.37
2018-02-18T23:50:30.701Z,16.95
2018-02-18T23:52:58.147Z,17.15
2018-02-18T23:55:25.560Z,18.35
2018-02-18T23:57:53.762Z,18.77
